« Back
NWS Peachtree City, Ga » Text Product » MCN Terminal Aerodrome Forecast


Printer-friendly Version
Current Version              Previous Versions:   1  2  3  4  5  6  7  8  9  

Terminal Aerodrome Forecast

794
FTUS42 KFFC 011734
TAFMCN
TAF
KMCN 011734Z 0118/0218 32008KT P6SM FEW050
     FM012000 28005KT P6SM FEW050
     FM020500 13007KT P6SM SKC
     FM020600 11004KT 5SM BR BKN007
     FM020900 09003KT 2SM BR OVC005
     FM021300 12005KT 4SM BR OVC007
     FM021500 13006KT 6SM BR BKN015
     FM021700 15007KT P6SM SCT035=



USA.gov is the U.S. government's official web portal to all federal, state and local government web resources and services.